Time;durP1;ratioP1;P1;durP2;ratioP2;P2;SDS_P1;SDS_P2;PMS_P1;PMS_P2;Temp;Humidity;BMP_temperature;BMP_pressure;BME280_temperature;BME280_humidity;BME280_pressure;Samples;Min_cycle;Max_cycle;Signal;HPM_P1;HPM_P2
2023/08/06 00:00:22;;;;;;;2.33;1.42;;;13.30;99.90;;;;;;5031466;28;20509;-70
2023/08/06 00:02:47;;;;;;;3.53;1.73;;;13.30;99.90;;;;;;5031438;28;20206;-70
2023/08/06 00:05:13;;;;;;;2.80;1.52;;;13.40;99.90;;;;;;5031420;28;20193;-70
2023/08/06 00:07:39;;;;;;;7.45;1.77;;;13.30;99.90;;;;;;5031535;28;20170;-70
2023/08/06 00:10:05;;;;;;;2.03;1.38;;;13.30;99.90;;;;;;5047863;28;20670;-70
2023/08/06 00:12:30;;;;;;;2.65;1.48;;;13.30;99.90;;;;;;5050975;28;20181;-71
2023/08/06 00:14:56;;;;;;;4.28;1.63;;;13.30;99.90;;;;;;5051126;28;20508;-71
2023/08/06 00:17:22;;;;;;;2.83;1.63;;;;;;;;;;5050748;28;20208;-70
2023/08/06 00:19:48;;;;;;;3.87;1.40;;;13.20;99.90;;;;;;5051016;28;20188;-70
2023/08/06 00:22:13;;;;;;;4.53;1.90;;;13.10;99.90;;;;;;5043332;28;20173;-70
2023/08/06 00:24:39;;;;;;;4.13;1.63;;;13.00;99.90;;;;;;5031037;28;20217;-70
2023/08/06 00:27:05;;;;;;;4.90;2.00;;;13.00;99.90;;;;;;5031191;28;20240;-69
2023/08/06 00:29:30;;;;;;;4.20;1.60;;;12.90;99.90;;;;;;5030922;28;20269;-70
2023/08/06 00:31:56;;;;;;;4.07;1.60;;;12.90;99.90;;;;;;5036199;28;20177;-71
2023/08/06 00:34:21;;;;;;;2.75;1.77;;;12.80;99.90;;;;;;5050875;28;20178;-70
2023/08/06 00:36:47;;;;;;;2.30;1.53;;;12.80;99.90;;;;;;5050754;28;20174;-70
2023/08/06 00:39:13;;;;;;;2.10;1.60;;;12.90;99.90;;;;;;5050705;28;20295;-70
2023/08/06 00:41:39;;;;;;;4.63;1.43;;;;;;;;;;5050843;28;20690;-70
2023/08/06 00:44:05;;;;;;;3.27;1.60;;;12.80;99.90;;;;;;5050710;28;20205;-69
2023/08/06 00:46:33;;;;;;;5.57;1.58;;;12.80;99.90;;;;;;5049511;28;20184;-69
2023/08/06 00:48:59;;;;;;;3.57;1.60;;;12.80;99.90;;;;;;5050775;28;20184;-69
2023/08/06 00:51:25;;;;;;;5.30;1.40;;;12.70;99.90;;;;;;5050775;28;20640;-69
2023/08/06 00:53:53;;;;;;;3.60;1.70;;;12.70;99.90;;;;;;5050686;28;20174;-70
2023/08/06 00:56:19;;;;;;;4.17;1.83;;;12.70;99.90;;;;;;5050005;28;20222;-70
2023/08/06 00:58:46;;;;;;;5.90;1.70;;;12.70;99.90;;;;;;5050710;28;20204;-70
2023/08/06 01:01:12;;;;;;;2.33;1.30;;;12.60;99.90;;;;;;5037363;28;20177;-70
2023/08/06 01:03:37;;;;;;;2.33;1.60;;;12.60;99.90;;;;;;5026311;28;20574;-71
2023/08/06 01:06:03;;;;;;;5.13;1.70;;;12.60;99.90;;;;;;5049528;28;20177;-69
2023/08/06 01:09:03;;;;;;;4.23;1.77;;;12.60;99.90;;;;;;5030507;28;20590;-70
2023/08/06 01:12:06;;;;;;;3.97;1.50;;;12.70;99.90;;;;;;5029276;28;20292;-70
2023/08/06 01:15:06;;;;;;;5.33;1.63;;;12.60;99.90;;;;;;5014635;28;20194;-70
2023/08/06 01:17:32;;;;;;;7.83;1.63;;;12.60;99.90;;;;;;5010611;28;20202;-69
2023/08/06 01:19:58;;;;;;;4.03;1.60;;;12.50;99.90;;;;;;5025749;28;20265;-70
2023/08/06 01:22:23;;;;;;;5.57;2.00;;;12.50;99.90;;;;;;5029222;28;20236;-70
2023/08/06 01:24:50;;;;;;;7.10;1.40;;;12.50;99.90;;;;;;5044735;28;20185;-70
2023/08/06 01:27:49;;;;;;;3.63;1.60;;;12.40;99.90;;;;;;5050332;28;20201;-70
2023/08/06 01:30:28;;;;;;;3.60;1.47;;;12.40;99.90;;;;;;5050292;28;20173;-70
2023/08/06 01:33:03;;;;;;;3.87;1.60;;;12.40;99.90;;;;;;5050115;28;20250;-70
2023/08/06 01:35:30;;;;;;;3.93;1.80;;;12.40;99.90;;;;;;5050245;28;20184;-70
2023/08/06 01:37:56;;;;;;;5.03;1.93;;;12.30;99.90;;;;;;5050192;28;20225;-70
2023/08/06 01:40:22;;;;;;;2.70;1.60;;;12.40;99.90;;;;;;5036541;28;20182;-70
2023/08/06 01:42:47;;;;;;;6.80;1.80;;;12.30;99.90;;;;;;5030253;28;20190;-70
2023/08/06 01:45:13;;;;;;;5.40;1.57;;;12.40;99.90;;;;;;5030364;28;20209;-70
2023/08/06 01:47:39;;;;;;;3.70;1.73;;;12.30;99.90;;;;;;5030349;28;20561;-70
2023/08/06 01:50:05;;;;;;;6.10;1.60;;;12.30;99.90;;;;;;5040728;28;20185;-70
2023/08/06 01:52:30;;;;;;;5.20;1.67;;;12.20;99.90;;;;;;5050075;28;20173;-70
2023/08/06 01:54:56;;;;;;;4.80;1.30;;;12.20;99.90;;;;;;5049829;28;20177;-70
2023/08/06 01:57:22;;;;;;;4.07;1.80;;;12.20;99.90;;;;;;5050203;28;20173;-70
2023/08/06 01:59:47;;;;;;;3.47;1.47;;;12.10;99.90;;;;;;5049843;28;20656;-70
2023/08/06 02:02:13;;;;;;;3.67;1.93;;;12.20;99.90;;;;;;5050089;28;20177;-70
2023/08/06 02:04:39;;;;;;;5.20;1.80;;;12.20;99.90;;;;;;5049650;28;20248;-70
2023/08/06 02:07:04;;;;;;;3.93;1.60;;;12.20;99.90;;;;;;5041216;28;20174;-70
2023/08/06 02:09:30;;;;;;;3.83;1.60;;;12.20;99.90;;;;;;5051783;28;20169;-70
2023/08/06 02:11:56;;;;;;;5.70;1.77;;;12.20;99.90;;;;;;5053590;28;20284;-71
2023/08/06 02:14:21;;;;;;;2.77;1.70;;;12.20;99.90;;;;;;5053743;28;20231;-70
2023/08/06 02:16:47;;;;;;;3.53;1.87;;;12.10;99.90;;;;;;5051980;28;20632;-70
2023/08/06 02:19:12;;;;;;;7.37;1.70;;;12.20;99.90;;;;;;5053476;28;20230;-70
2023/08/06 02:21:38;;;;;;;4.70;1.80;;;12.10;99.90;;;;;;5053433;28;20258;-71
2023/08/06 02:24:04;;;;;;;7.27;1.93;;;12.10;99.90;;;;;;5053610;28;20539;-71
2023/08/06 02:26:29;;;;;;;4.33;1.53;;;12.10;99.90;;;;;;5050160;28;20174;-70
2023/08/06 02:28:55;;;;;;;4.83;1.67;;;;;;;;;;5044024;28;20541;-70
2023/08/06 02:31:21;;;;;;;8.97;1.97;;;12.10;99.90;;;;;;5033499;28;20170;-71
2023/08/06 02:33:46;;;;;;;4.13;1.90;;;12.10;99.90;;;;;;5033275;28;20197;-70
2023/08/06 02:36:12;;;;;;;3.53;1.50;;;12.10;99.90;;;;;;5033384;28;20535;-70
2023/08/06 02:38:38;;;;;;;5.83;1.90;;;12.10;99.90;;;;;;5039880;28;20217;-71
2023/08/06 02:41:04;;;;;;;5.17;1.67;;;12.10;99.90;;;;;;5053133;28;20649;-71
2023/08/06 02:43:30;;;;;;;5.83;1.73;;;12.10;99.90;;;;;;5052934;28;20242;-71
2023/08/06 02:45:59;;;;;;;7.40;1.70;;;12.10;99.90;;;;;;5052753;28;20169;-71
2023/08/06 02:48:25;;;;;;;4.00;1.40;;;12.10;99.90;;;;;;5052860;28;20184;-71
2023/08/06 02:50:51;;;;;;;3.53;1.40;;;12.10;99.90;;;;;;5052881;28;20552;-71
2023/08/06 02:53:16;;;;;;;5.27;1.73;;;12.10;99.90;;;;;;5044277;28;20170;-71
2023/08/06 02:55:50;;;;;;;6.23;1.63;;;12.10;99.90;;;;;;5031568;28;20182;-71
2023/08/06 02:58:16;;;;;;;7.33;1.60;;;12.40;99.90;;;;;;5034245;28;20209;-71
2023/08/06 03:00:42;;;;;;;3.87;1.40;;;12.10;99.90;;;;;;5051324;28;20725;-70
2023/08/06 03:03:09;;;;;;;4.73;1.30;;;12.20;99.90;;;;;;5052208;28;20205;-70
2023/08/06 03:05:34;;;;;;;4.13;1.67;;;12.30;99.90;;;;;;5052534;28;20532;-70
2023/08/06 03:08:00;;;;;;;4.73;1.50;;;12.10;99.90;;;;;;5052529;28;20175;-70
2023/08/06 03:10:25;;;;;;;2.13;1.27;;;12.10;99.90;;;;;;5051255;28;20176;-71
2023/08/06 03:12:51;;;;;;;4.47;1.50;;;12.10;99.90;;;;;;5051944;28;20248;-70
2023/08/06 03:15:16;;;;;;;4.90;1.93;;;12.00;99.90;;;;;;5052397;28;20223;-70
2023/08/06 03:17:44;;;;;;;3.53;1.53;;;12.00;99.90;;;;;;5052339;28;20584;-70
2023/08/06 03:20:09;;;;;;;4.80;1.53;;;12.00;99.90;;;;;;5051950;28;20226;-70
2023/08/06 03:22:35;;;;;;;3.93;2.00;;;11.90;99.90;;;;;;5051809;28;20578;-70
2023/08/06 03:25:01;;;;;;;4.47;1.47;;;;;;;;;;5051128;28;20181;-70
2023/08/06 03:27:27;;;;;;;3.97;1.57;;;11.90;99.90;;;;;;5052368;28;20169;-70
2023/08/06 03:29:52;;;;;;;3.83;1.67;;;11.80;99.90;;;;;;5047028;28;20549;-70
2023/08/06 03:32:18;;;;;;;5.77;1.63;;;11.70;99.90;;;;;;5030117;28;20170;-70
2023/08/06 03:34:44;;;;;;;3.03;1.53;;;11.60;99.90;;;;;;5032021;28;20523;-70
2023/08/06 03:37:09;;;;;;;3.97;2.00;;;11.80;99.90;;;;;;5018813;28;20229;-70
2023/08/06 03:39:35;;;;;;;7.63;2.10;;;;;;;;;;5025578;28;20181;-70
2023/08/06 03:42:01;;;;;;;4.20;1.67;;;11.80;99.90;;;;;;5051761;28;20631;-71
2023/08/06 03:44:28;;;;;;;4.77;1.40;;;11.60;99.90;;;;;;5051585;28;20292;-70
2023/08/06 03:46:53;;;;;;;2.87;1.37;;;11.80;99.90;;;;;;5051794;28;20169;-71
2023/08/06 03:49:19;;;;;;;3.47;1.60;;;11.80;99.90;;;;;;5038685;28;20189;-70
2023/08/06 03:51:45;;;;;;;5.03;1.60;;;11.70;99.90;;;;;;5031650;28;20588;-70
2023/08/06 03:54:10;;;;;;;6.63;1.67;;;11.70;99.90;;;;;;5031591;28;20219;-71
2023/08/06 03:56:36;;;;;;;6.60;1.50;;;11.50;99.90;;;;;;5050536;28;20180;-70
2023/08/06 03:59:02;;;;;;;10.30;1.90;;;;;;;;;;5045722;28;20224;-69
2023/08/06 04:01:27;;;;;;;3.63;1.73;;;11.70;99.90;;;;;;5031437;28;20648;-70
2023/08/06 04:03:53;;;;;;;4.53;1.53;;;11.70;99.90;;;;;;5031294;28;20300;-70
2023/08/06 04:06:18;;;;;;;3.13;1.80;;;11.80;99.90;;;;;;5031397;28;20181;-70
2023/08/06 04:08:44;;;;;;;5.77;1.80;;;11.60;99.90;;;;;;5032773;28;20177;-71
2023/08/06 04:11:10;;;;;;;4.20;1.73;;;;;;;;;;5051188;28;20199;-71
2023/08/06 04:13:36;;;;;;;4.67;1.33;;;11.60;99.90;;;;;;5051247;28;20173;-71
2023/08/06 04:16:05;;;;;;;2.77;1.57;;;11.70;99.90;;;;;;5035838;28;20180;-71
2023/08/06 04:18:30;;;;;;;6.40;2.10;;;11.60;99.90;;;;;;5031828;28;20186;-71
2023/08/06 04:20:57;;;;;;;10.90;1.80;;;11.60;99.90;;;;;;5050984;28;20536;-70
2023/08/06 04:23:23;;;;;;;3.00;1.90;;;11.50;99.90;;;;;;5051126;28;20219;-70
2023/08/06 04:25:49;;;;;;;6.17;1.77;;;11.60;99.90;;;;;;5038358;28;20531;-70
2023/08/06 04:28:14;;;;;;;4.30;1.77;;;11.50;99.90;;;;;;5031109;28;20224;-70
2023/08/06 04:30:40;;;;;;;2.87;1.60;;;11.40;99.90;;;;;;5048843;28;20185;-70
2023/08/06 04:33:05;;;;;;;6.13;1.70;;;11.50;99.90;;;;;;5050263;28;20730;-70
2023/08/06 04:35:31;;;;;;;5.93;1.70;;;11.40;99.90;;;;;;5050695;28;20177;-70
2023/08/06 04:37:57;;;;;;;4.30;1.67;;;;;;;;;;5050844;28;20256;-69
2023/08/06 04:40:22;;;;;;;4.57;1.80;;;11.50;99.90;;;;;;5050469;28;20636;-71
2023/08/06 04:42:48;;;;;;;2.90;1.60;;;11.60;99.90;;;;;;5050750;28;20196;-69
2023/08/06 04:45:14;;;;;;;4.50;1.73;;;11.60;99.90;;;;;;5050296;28;20204;-69
2023/08/06 04:47:39;;;;;;;4.33;1.60;;;11.50;99.90;;;;;;5050608;28;20686;-69
2023/08/06 04:50:05;;;;;;;4.17;1.73;;;11.50;99.90;;;;;;5048351;28;20658;-69
2023/08/06 04:52:32;;;;;;;3.50;1.50;;;11.50;99.90;;;;;;5050292;28;20181;-69
2023/08/06 04:54:58;;;;;;;2.40;1.40;;;11.40;99.90;;;;;;5050619;28;20338;-69
2023/08/06 04:57:23;;;;;;;3.53;1.60;;;11.50;99.90;;;;;;5050316;28;20672;-70
2023/08/06 04:59:49;;;;;;;5.67;1.53;;;11.50;99.90;;;;;;5049124;28;20181;-70
2023/08/06 05:02:15;;;;;;;8.30;1.90;;;11.50;99.90;;;;;;5050389;28;20181;-70
2023/08/06 05:04:40;;;;;;;5.87;2.00;;;11.40;99.90;;;;;;5050318;28;20258;-70
2023/08/06 05:07:06;;;;;;;4.17;1.80;;;11.20;99.90;;;;;;5033993;28;20170;-71
2023/08/06 05:09:32;;;;;;;5.37;1.70;;;;;;;;;;5041130;28;20667;-70
2023/08/06 05:12:00;;;;;;;5.80;2.23;;;11.50;99.90;;;;;;5050509;28;20168;-70
2023/08/06 05:14:26;;;;;;;5.80;1.90;;;11.80;99.90;;;;;;5050408;28;20670;-70
2023/08/06 05:16:51;;;;;;;6.23;2.00;;;11.60;99.90;;;;;;5036199;28;20182;-70
2023/08/06 05:19:17;;;;;;;5.37;2.00;;;11.60;99.90;;;;;;5030396;28;20550;-71
2023/08/06 05:21:42;;;;;;;4.23;2.00;;;11.70;99.90;;;;;;5030296;28;20232;-70
2023/08/06 05:24:08;;;;;;;6.77;2.30;;;11.80;99.90;;;;;;5030558;28;20209;-70
2023/08/06 05:26:34;;;;;;;8.50;1.80;;;11.90;99.90;;;;;;5030036;28;20706;-70
2023/08/06 05:29:00;;;;;;;3.37;1.73;;;11.80;99.90;;;;;;5030395;28;20178;-70
2023/08/06 05:31:26;;;;;;;4.23;1.53;;;12.10;99.90;;;;;;5046324;28;20189;-71
2023/08/06 05:33:51;;;;;;;3.57;1.60;;;12.00;99.90;;;;;;5050120;28;20177;-70
2023/08/06 05:36:17;;;;;;;9.10;1.83;;;11.80;99.90;;;;;;5041487;28;20672;-70
2023/08/06 05:38:43;;;;;;;3.63;1.77;;;11.90;99.90;;;;;;5030195;28;20218;-70
2023/08/06 05:41:09;;;;;;;5.13;1.80;;;11.90;99.90;;;;;;5045940;28;20200;-70
2023/08/06 05:43:34;;;;;;;6.00;2.00;;;12.70;99.90;;;;;;5051193;28;20561;-70
2023/08/06 05:46:00;;;;;;;2.73;1.67;;;12.30;99.90;;;;;;5053598;28;20184;-70
2023/08/06 05:48:27;;;;;;;4.77;1.80;;;12.40;99.90;;;;;;5054058;28;20188;-70
2023/08/06 05:50:53;;;;;;;7.93;2.00;;;12.60;99.90;;;;;;5052443;28;20173;-70
2023/08/06 05:53:19;;;;;;;5.30;2.07;;;12.70;99.90;;;;;;5052346;28;20184;-70
2023/08/06 05:55:45;;;;;;;8.73;2.00;;;12.90;99.90;;;;;;5053666;28;20181;-70
2023/08/06 05:58:10;;;;;;;6.53;2.03;;;13.00;99.90;;;;;;5053832;28;20177;-70
2023/08/06 06:00:36;;;;;;;5.13;1.70;;;13.10;99.90;;;;;;5053854;28;20170;-70
2023/08/06 06:03:02;;;;;;;5.57;1.90;;;13.00;99.90;;;;;;5053078;28;20201;-71
2023/08/06 06:05:28;;;;;;;4.75;2.00;;;13.10;99.90;;;;;;5053831;28;20249;-70
2023/08/06 06:07:54;;;;;;;4.93;1.90;;;13.40;99.90;;;;;;5053771;28;20806;-70
2023/08/06 06:10:19;;;;;;;6.22;1.83;;;13.40;99.90;;;;;;5053557;28;20698;-70
2023/08/06 06:12:45;;;;;;;4.55;1.60;;;13.60;99.90;;;;;;5053286;28;20181;-70
2023/08/06 06:15:11;;;;;;;6.22;1.73;;;13.70;99.90;;;;;;5050537;28;20650;-71
2023/08/06 06:17:36;;;;;;;8.15;1.73;;;13.80;99.90;;;;;;5043075;28;20231;-70
2023/08/06 06:20:04;;;;;;;4.47;1.67;;;13.80;99.90;;;;;;5033698;28;20174;-71
2023/08/06 06:22:30;;;;;;;4.07;1.65;;;13.90;99.90;;;;;;5033363;28;20186;-70
2023/08/06 06:24:55;;;;;;;7.60;1.25;;;14.00;99.90;;;;;;5033294;28;20260;-71
2023/08/06 06:27:21;;;;;;;4.50;1.35;;;14.00;99.90;;;;;;5015751;28;20166;-71
2023/08/06 06:29:46;;;;;;;2.05;1.30;;;13.70;99.90;;;;;;5032117;28;20178;-72
2023/08/06 06:32:12;;;;;;;4.22;1.50;;;14.30;99.90;;;;;;5031926;28;20643;-71
2023/08/06 06:34:37;;;;;;;1.75;1.27;;;14.40;99.90;;;;;;5052720;28;20174;-72
2023/08/06 06:37:03;;;;;;;5.47;1.90;;;14.80;99.90;;;;;;5052667;28;20712;-70
2023/08/06 06:39:29;;;;;;;2.60;0.98;;;14.70;99.90;;;;;;5052979;28;20235;-70
2023/08/06 06:41:55;;;;;;;5.28;1.40;;;14.70;99.90;;;;;;5051283;28;20548;-70
2023/08/06 06:44:21;;;;;;;7.25;1.60;;;;;;;;;;5052744;28;20228;-68
2023/08/06 06:46:47;;;;;;;5.93;1.10;;;;;;;;;;5052686;28;20667;-67
2023/08/06 06:49:12;;;;;;;3.75;1.10;;;15.20;99.90;;;;;;5052933;28;20260;-67
2023/08/06 06:51:38;;;;;;;3.40;1.10;;;15.30;99.90;;;;;;5051011;28;20746;-70
2023/08/06 06:54:04;;;;;;;5.35;1.27;;;15.30;99.90;;;;;;5052435;28;20263;-70
2023/08/06 06:56:29;;;;;;;3.25;0.95;;;15.30;99.90;;;;;;5052170;28;20540;-70
2023/08/06 06:58:55;;;;;;;3.92;1.00;;;15.30;99.90;;;;;;5052694;28;20203;-70
2023/08/06 07:01:21;;;;;;;5.68;1.13;;;;;;;;;;5050876;28;20169;-70
2023/08/06 07:03:46;;;;;;;5.47;1.02;;;15.40;99.90;;;;;;5052568;28;20242;-70
2023/08/06 07:06:12;;;;;;;4.72;1.38;;;15.30;99.90;;;;;;5052560;28;20243;-70
2023/08/06 07:08:38;;;;;;;6.72;1.48;;;14.50;99.90;;;;;;5052550;28;20544;-71
2023/08/06 07:11:05;;;;;;;4.90;1.20;;;15.10;99.90;;;;;;5048476;28;20615;-70
2023/08/06 07:13:31;;;;;;;2.72;1.13;;;15.20;99.90;;;;;;5038863;28;20204;-70
2023/08/06 07:15:57;;;;;;;4.93;1.25;;;15.20;99.90;;;;;;5052399;28;20173;-70
2023/08/06 07:18:24;;;;;;;3.97;1.00;;;15.40;99.90;;;;;;5052270;28;20173;-70
2023/08/06 07:20:54;;;;;;;3.17;0.98;;;15.40;99.90;;;;;;5050535;28;20530;-70
2023/08/06 07:23:24;;;;;;;5.03;1.10;;;15.50;99.90;;;;;;5051983;28;20200;-70
2023/08/06 07:25:50;;;;;;;4.65;1.52;;;15.50;99.90;;;;;;5050713;28;20182;-70
2023/08/06 07:28:16;;;;;;;4.85;1.10;;;15.60;99.90;;;;;;5036825;28;20170;-70
2023/08/06 07:30:43;;;;;;;4.10;1.10;;;15.70;99.90;;;;;;5040783;28;20169;-71
2023/08/06 07:33:08;;;;;;;1.58;0.80;;;15.80;99.90;;;;;;5035629;28;20173;-71
2023/08/06 07:35:34;;;;;;;3.85;0.98;;;15.90;99.90;;;;;;5050563;28;20521;-71
2023/08/06 07:38:00;;;;;;;3.80;1.25;;;16.00;99.90;;;;;;5042409;28;20240;-71
2023/08/06 07:40:26;;;;;;;7.47;1.00;;;18.10;99.90;;;;;;5036022;28;20169;-70
2023/08/06 07:42:52;;;;;;;6.82;1.00;;;;;;;;;;5046742;28;20640;-70
2023/08/06 07:45:18;;;;;;;4.25;1.13;;;16.30;99.90;;;;;;5047024;28;20177;-70
2023/08/06 07:47:43;;;;;;;2.30;1.10;;;16.20;99.90;;;;;;5050475;28;20180;-69
2023/08/06 07:50:10;;;;;;;1.80;0.90;;;16.40;99.90;;;;;;5046153;28;20187;-70
2023/08/06 07:52:35;;;;;;;4.40;1.08;;;16.40;99.90;;;;;;5025296;28;20174;-70
2023/08/06 07:55:04;;;;;;;2.28;0.70;;;16.20;99.90;;;;;;5011657;28;20182;-70
2023/08/06 07:57:31;;;;;;;3.10;0.80;;;16.30;99.90;;;;;;5025108;28;20177;-71
2023/08/06 07:59:56;;;;;;;1.80;0.70;;;16.50;99.90;;;;;;5031599;28;20575;-70
2023/08/06 08:02:22;;;;;;;4.18;0.90;;;16.60;99.90;;;;;;5031365;28;20640;-71
2023/08/06 08:04:48;;;;;;;3.28;1.55;;;16.70;99.90;;;;;;5031347;28;20220;-71
2023/08/06 08:07:14;;;;;;;2.47;0.77;;;16.80;99.90;;;;;;5043689;28;20212;-70
2023/08/06 08:09:40;;;;;;;2.00;0.73;;;;;;;;;;5037668;28;20272;-72
2023/08/06 08:12:06;;;;;;;3.90;0.70;;;16.80;99.90;;;;;;5041362;28;20169;-73
2023/08/06 08:14:37;;;;;;;1.30;0.57;;;16.80;99.90;;;;;;5049204;28;20533;-71
2023/08/06 08:17:05;;;;;;;3.17;0.90;;;16.80;99.90;;;;;;5051173;28;20208;-71
2023/08/06 08:19:31;;;;;;;2.60;0.77;;;16.60;99.90;;;;;;5050726;28;20169;-72
2023/08/06 08:21:57;;;;;;;2.08;0.75;;;16.70;99.90;;;;;;5051052;28;20169;-71
2023/08/06 08:24:23;;;;;;;3.95;0.65;;;16.90;99.90;;;;;;5049136;28;20205;-70
2023/08/06 08:26:53;;;;;;;5.05;0.90;;;16.80;99.90;;;;;;5050866;28;20177;-70
2023/08/06 08:29:22;;;;;;;1.63;0.70;;;17.00;99.90;;;;;;5050819;28;20177;-69
2023/08/06 08:31:51;;;;;;;2.63;1.38;;;17.30;99.90;;;;;;5050795;28;20196;-70
2023/08/06 08:34:17;;;;;;;2.08;0.70;;;17.20;99.90;;;;;;5049225;28;20181;-69
2023/08/06 08:36:43;;;;;;;3.47;0.95;;;18.00;99.90;;;;;;5050877;28;20173;-70
2023/08/06 08:39:09;;;;;;;1.60;0.80;;;17.80;99.90;;;;;;5050482;28;20721;-69
2023/08/06 08:41:37;;;;;;;1.73;0.70;;;17.80;99.90;;;;;;5050559;28;20702;-69
2023/08/06 08:44:07;;;;;;;2.33;0.60;;;17.80;99.90;;;;;;5048773;28;20767;-69
2023/08/06 08:46:35;;;;;;;2.97;0.80;;;17.90;99.90;;;;;;5033935;28;20223;-69
2023/08/06 08:49:02;;;;;;;3.35;0.68;;;18.00;99.90;;;;;;5030661;28;20177;-70
2023/08/06 08:51:29;;;;;;;1.13;0.60;;;18.10;99.90;;;;;;5030660;28;20174;-69
2023/08/06 08:53:58;;;;;;;1.75;0.80;;;18.30;99.90;;;;;;5036370;28;20215;-69
2023/08/06 08:56:24;;;;;;;1.92;0.80;;;18.00;99.90;;;;;;5051001;28;20606;-69
2023/08/06 08:58:55;;;;;;;2.03;0.60;;;18.20;99.90;;;;;;5050395;28;20192;-69
2023/08/06 09:01:22;;;;;;;4.63;0.90;;;18.50;99.90;;;;;;5049572;28;20199;-70
2023/08/06 09:03:48;;;;;;;6.30;0.90;;;18.60;99.90;;;;;;5047277;28;20220;-70
2023/08/06 09:06:15;;;;;;;1.92;0.60;;;18.80;99.90;;;;;;5038352;28;20640;-69
2023/08/06 09:09:08;;;;;;;3.08;1.20;;;19.10;99.90;;;;;;5029310;28;20179;-69
2023/08/06 09:11:42;;;;;;;2.75;0.80;;;19.00;99.90;;;;;;5038685;28;20173;-72
2023/08/06 09:14:08;;;;;;;8.93;1.77;;;18.90;99.90;;;;;;5050374;28;20246;-72
2023/08/06 09:16:37;;;;;;;6.82;1.00;;;18.50;99.90;;;;;;5050054;28;20196;-74
2023/08/06 09:19:09;;;;;;;2.30;0.85;;;18.10;99.90;;;;;;5047933;28;20701;-73
2023/08/06 09:21:40;;;;;;;2.90;0.70;;;17.70;99.90;;;;;;5053051;28;20181;-74
2023/08/06 09:24:12;;;;;;;1.83;0.93;;;17.50;99.90;;;;;;5036708;28;20217;-73
2023/08/06 09:26:42;;;;;;;4.00;1.15;;;17.30;99.90;;;;;;5054003;28;20204;-72
2023/08/06 09:29:11;;;;;;;4.10;0.80;;;16.90;99.90;;;;;;5050060;28;20187;-72
2023/08/06 09:31:52;;;;;;;5.10;1.00;;;16.70;99.90;;;;;;5048383;28;20182;-73
2023/08/06 09:34:22;;;;;;;3.45;0.80;;;16.80;99.90;;;;;;5047420;28;20212;-72
2023/08/06 09:36:53;;;;;;;4.57;0.90;;;17.20;99.90;;;;;;5050934;28;20174;-74
2023/08/06 09:39:20;;;;;;;4.35;0.70;;;17.40;99.90;;;;;;5049997;28;20199;-74
2023/08/06 09:41:49;;;;;;;5.88;0.75;;;17.60;99.90;;;;;;5052207;28;20235;-79
2023/08/06 09:44:19;;;;;;;4.80;0.80;;;18.60;99.90;;;;;;5054126;28;20697;-76
2023/08/06 09:46:55;;;;;;;4.55;0.80;;;19.80;99.90;;;;;;5039300;28;20223;-74
2023/08/06 09:49:32;;;;;;;4.10;0.77;;;19.90;99.90;;;;;;5036756;28;20181;-77
2023/08/06 09:51:59;;;;;;;3.95;0.77;;;19.80;99.90;;;;;;5046650;28;20176;-77
2023/08/06 09:54:26;;;;;;;1.63;0.50;;;19.40;99.90;;;;;;5053095;28;20181;-75
2023/08/06 09:56:56;;;;;;;3.70;0.70;;;19.00;99.90;;;;;;5052759;28;20248;-75
2023/08/06 09:59:23;;;;;;;2.40;0.60;;;19.20;99.90;;;;;;5033726;28;20220;-74
2023/08/06 10:01:50;;;;;;;3.33;0.70;;;19.30;99.90;;;;;;5032191;28;20225;-78
2023/08/06 10:04:16;;;;;;;3.33;0.73;;;19.90;99.90;;;;;;5041290;28;20295;-75
2023/08/06 10:06:45;;;;;;;1.90;0.50;;;20.60;99.90;;;;;;5047286;28;20174;-79
2023/08/06 10:09:11;;;;;;;2.42;0.57;;;21.00;99.90;;;;;;5032368;28;20236;-79
2023/08/06 10:11:37;;;;;;;1.90;0.60;;;21.40;99.90;;;;;;5043203;28;20607;-77
2023/08/06 10:14:15;;;;;;;3.80;0.70;;;21.50;99.90;;;;;;5052403;28;20539;-75
2023/08/06 10:16:42;;;;;;;4.03;0.95;;;22.00;99.90;;;;;;5050144;28;20180;-78
2023/08/06 10:19:10;;;;;;;1.35;0.60;;;23.00;99.90;;;;;;5052619;28;20652;-78
2023/08/06 10:21:37;;;;;;;5.03;0.70;;;22.30;99.90;;;;;;5053512;28;20177;-79
2023/08/06 10:24:09;;;;;;;1.67;0.60;;;22.00;99.90;;;;;;5041299;28;20236;-79
2023/08/06 10:26:35;;;;;;;2.88;0.82;;;21.60;99.90;;;;;;5044627;28;20251;-78
2023/08/06 10:29:00;;;;;;;2.22;0.55;;;21.90;99.90;;;;;;5045792;28;20539;-78
2023/08/06 10:31:57;;;;;;;1.92;0.82;;;22.10;99.90;;;;;;5041062;28;20209;-73
2023/08/06 10:34:23;;;;;;;2.60;0.70;;;22.30;99.90;;;;;;5033244;28;20253;-76
2023/08/06 10:36:49;;;;;;;2.17;0.77;;;22.40;99.90;;;;;;5032775;28;20276;-76
2023/08/06 10:39:15;;;;;;;1.35;0.73;;;21.60;99.90;;;;;;5032686;28;20190;-77
2023/08/06 10:41:43;;;;;;;2.78;0.68;;;21.10;99.90;;;;;;5039541;28;20208;-80
2023/08/06 10:44:10;;;;;;;1.77;0.68;;;20.60;99.90;;;;;;5040973;28;20218;-80
2023/08/06 10:46:37;;;;;;;3.05;0.70;;;19.80;99.90;;;;;;5033787;28;20702;-81
2023/08/06 10:49:04;;;;;;;3.47;0.90;;;19.60;99.90;;;;;;5047896;28;20177;-79
2023/08/06 10:51:30;;;;;;;1.58;0.80;;;19.90;99.90;;;;;;5053131;28;20173;-83
2023/08/06 10:53:57;;;;;;;2.85;0.60;;;20.40;99.90;;;;;;5041752;28;20203;-81
2023/08/06 10:56:27;;;;;;;2.20;0.70;;;21.00;99.90;;;;;;5048457;28;20174;-80
2023/08/06 10:58:56;;;;;;;1.38;0.70;;;21.60;99.90;;;;;;5032550;28;20182;-79
2023/08/06 11:01:23;;;;;;;1.73;0.70;;;21.70;99.90;;;;;;5052079;28;20180;-80
2023/08/06 11:03:50;;;;;;;2.80;0.80;;;22.70;99.90;;;;;;5063192;28;20299;-79
2023/08/06 11:06:23;;;;;;;2.05;0.60;;;22.30;99.90;;;;;;5039976;28;20213;-77
2023/08/06 11:08:51;;;;;;;0.93;0.57;;;21.20;99.90;;;;;;5035233;28;20211;-78
2023/08/06 11:11:17;;;;;;;2.50;0.80;;;20.60;99.90;;;;;;5052572;28;20211;-79
2023/08/06 11:13:48;;;;;;;2.20;0.77;;;19.20;99.90;;;;;;5043689;28;20305;-81
2023/08/06 11:16:18;;;;;;;5.13;0.75;;;19.30;99.90;;;;;;5042879;28;20178;-80
2023/08/06 11:18:44;;;;;;;3.25;0.82;;;19.30;99.90;;;;;;5032569;28;20271;-78
2023/08/06 11:21:14;;;;;;;5.35;1.05;;;19.10;99.90;;;;;;5035675;28;20169;-80
2023/08/06 11:23:40;;;;;;;3.63;0.80;;;19.70;99.90;;;;;;5032203;28;20216;-80
2023/08/06 11:26:07;;;;;;;2.28;0.65;;;19.70;99.90;;;;;;5035698;28;20173;-78
2023/08/06 11:28:33;;;;;;;1.20;0.73;;;19.70;99.90;;;;;;5032122;28;20166;-77
2023/08/06 11:31:02;;;;;;;2.35;0.70;;;19.80;99.90;;;;;;5032458;28;20173;-79
2023/08/06 11:33:28;;;;;;;2.42;0.70;;;19.90;99.90;;;;;;5032075;28;20699;-79
2023/08/06 11:35:59;;;;;;;1.75;0.70;;;21.20;99.90;;;;;;5032307;28;20179;-78
2023/08/06 11:38:28;;;;;;;4.22;1.17;;;22.70;99.90;;;;;;5032274;28;20218;-79
2023/08/06 11:40:55;;;;;;;2.67;0.75;;;23.70;99.90;;;;;;5040390;28;20645;-78
2023/08/06 11:43:24;;;;;;;2.22;0.80;;;25.00;99.90;;;;;;5029403;28;20296;-80
2023/08/06 11:45:52;;;;;;;2.08;0.98;;;25.00;99.90;;;;;;5023576;28;20185;-74
2023/08/06 11:48:18;;;;;;;1.80;0.88;;;;;;;;;;5034614;28;20169;-80
2023/08/06 11:50:45;;;;;;;2.03;1.00;;;23.90;99.90;;;;;;5041374;28;20290;-77
2023/08/06 11:53:13;;;;;;;2.97;0.77;;;22.60;99.90;;;;;;5025432;28;20177;-80
2023/08/06 11:55:40;;;;;;;2.00;0.77;;;21.90;99.90;;;;;;5035088;28;20208;-77
2023/08/06 11:58:05;;;;;;;1.10;0.75;;;20.30;99.90;;;;;;5019893;28;20191;-80
2023/08/06 12:00:31;;;;;;;4.55;0.80;;;19.90;99.90;;;;;;5029668;28;20224;-79
2023/08/06 12:02:57;;;;;;;3.38;0.88;;;19.90;99.90;;;;;;5051496;28;20235;-79
2023/08/06 12:05:28;;;;;;;2.00;0.70;;;19.60;99.90;;;;;;5020345;28;20174;-78
2023/08/06 12:07:59;;;;;;;1.85;0.60;;;19.60;99.90;;;;;;5029704;28;20174;-77
2023/08/06 12:10:26;;;;;;;2.90;1.00;;;19.90;99.90;;;;;;5048617;28;20230;-77
2023/08/06 12:12:52;;;;;;;2.83;0.85;;;21.30;99.90;;;;;;5051310;28;20208;-78
2023/08/06 12:15:18;;;;;;;1.42;0.77;;;23.00;99.90;;;;;;5033106;28;20310;-76
2023/08/06 12:17:43;;;;;;;1.90;0.90;;;23.80;99.90;;;;;;5052605;28;20173;-77
2023/08/06 12:20:10;;;;;;;2.15;0.90;;;24.80;99.90;;;;;;5049821;28;20308;-77
2023/08/06 12:22:37;;;;;;;1.23;0.50;;;24.80;99.90;;;;;;5027477;28;20253;-79
2023/08/06 12:25:06;;;;;;;2.42;0.90;;;22.90;99.90;;;;;;5032187;28;20241;-78
2023/08/06 12:27:32;;;;;;;1.83;0.80;;;22.90;99.90;;;;;;5026383;28;20189;-78
2023/08/06 12:29:57;;;;;;;1.60;0.70;;;22.00;99.90;;;;;;5016483;28;20177;-77
2023/08/06 12:32:23;;;;;;;1.70;0.73;;;21.60;99.90;;;;;;5051031;28;20172;-77
2023/08/06 12:34:48;;;;;;;1.95;0.70;;;21.80;99.90;;;;;;5041949;28;20233;-76
2023/08/06 12:37:14;;;;;;;3.35;0.63;;;22.00;99.90;;;;;;5038723;28;20290;-79
2023/08/06 12:39:40;;;;;;;2.72;1.08;;;23.30;99.90;;;;;;5018526;28;20173;-80
2023/08/06 12:42:06;;;;;;;11.27;1.10;;;24.30;99.90;;;;;;5029455;28;20188;-81
2023/08/06 12:44:32;;;;;;;3.10;0.80;;;24.30;99.90;;;;;;5028584;28;20579;-82
2023/08/06 12:46:58;;;;;;;1.60;0.60;;;23.70;99.90;;;;;;5019134;28;20713;-83
2023/08/06 12:49:25;;;;;;;1.98;0.55;;;23.00;99.90;;;;;;5029393;28;20272;-79